X  Close Metar Aviation Weather Data     ENGM Oslo Gardermoen Airport
Temperature
9°C Temperature
7°C Dewpoint
87% Humidity



Wind
4 M/S
9 MPH
14 KM/H
8 KTS



190°
South
Current Conditions

Mostly Cloudy Mostly Cloudy
Pressure 1011.92 (hPa) - 29.88 (inHg)
Visibility 6.2 (mile) - 10 (km)
Airport
Airport-code ENGM

Location: Oslo Gardermoen Airport
Distance: 6 (km)

Metar:
ENGM 110750Z 19008KT 9999 BKN009 09/07 Q1012 TEMPO BKN012

Time: 11-05-2021 09:50 CEST